sensor_id;sensor_type;location;lat;lon;timestamp;temperature;humidity
78731;SHT31;68055;51.978;5.658;2023-02-21T10:31:13;12.7;70.7
78731;SHT31;68055;51.978;5.658;2023-02-21T10:33:44;12.7;70.2
78731;SHT31;68055;51.978;5.658;2023-02-21T10:36:18;12.7;70.3
78731;SHT31;68055;51.978;5.658;2023-02-21T10:38:56;12.7;70.2
78731;SHT31;68055;51.978;5.658;2023-02-21T10:41:28;12.7;70.0
78731;SHT31;68055;51.978;5.658;2023-02-21T10:44:03;12.8;69.9
78731;SHT31;68055;51.978;5.658;2023-02-21T10:46:41;12.8;69.9
78731;SHT31;68055;51.978;5.658;2023-02-21T10:49:23;12.8;69.7
78731;SHT31;68055;51.978;5.658;2023-02-21T10:52:10;12.8;70.0
78731;SHT31;68055;51.978;5.658;2023-02-21T10:54:40;12.8;69.9
78731;SHT31;68055;51.978;5.658;2023-02-21T10:57:12;12.8;69.8
78731;SHT31;68055;51.978;5.658;2023-02-21T10:59:47;12.9;69.6
78731;SHT31;68055;51.978;5.658;2023-02-21T11:02:37;12.9;69.6
78731;SHT31;68055;51.978;5.658;2023-02-21T11:05:12;12.9;69.4
78731;SHT31;68055;51.978;5.658;2023-02-21T11:07:56;12.9;69.4
78731;SHT31;68055;51.978;5.658;2023-02-21T11:10:35;12.9;69.3
78731;SHT31;68055;51.978;5.658;2023-02-21T11:13:13;12.9;69.4
78731;SHT31;68055;51.978;5.658;2023-02-21T11:15:44;12.9;69.3
78731;SHT31;68055;51.978;5.658;2023-02-21T11:18:17;12.9;69.5
78731;SHT31;68055;51.978;5.658;2023-02-21T11:20:47;13.0;69.4
78731;SHT31;68055;51.978;5.658;2023-02-21T11:23:23;13.0;69.4
78731;SHT31;68055;51.978;5.658;2023-02-21T11:25:58;13.0;68.9
78731;SHT31;68055;51.978;5.658;2023-02-21T11:28:39;13.0;69.0
78731;SHT31;68055;51.978;5.658;2023-02-21T11:31:16;13.0;69.1
78731;SHT31;68055;51.978;5.658;2023-02-21T11:33:54;13.0;69.0
78731;SHT31;68055;51.978;5.658;2023-02-21T11:36:30;13.0;69.0
78731;SHT31;68055;51.978;5.658;2023-02-21T11:39:04;13.0;69.1
78731;SHT31;68055;51.978;5.658;2023-02-21T11:41:46;13.0;69.1
78731;SHT31;68055;51.978;5.658;2023-02-21T11:44:24;13.0;69.1
78731;SHT31;68055;51.978;5.658;2023-02-21T11:47:02;13.0;69.1
78731;SHT31;68055;51.978;5.658;2023-02-21T11:49:40;13.0;69.2
78731;SHT31;68055;51.978;5.658;2023-02-21T11:52:16;13.1;69.3
78731;SHT31;68055;51.978;5.658;2023-02-21T11:54:48;13.1;68.9
78731;SHT31;68055;51.978;5.658;2023-02-21T11:57:27;13.1;69.0
78731;SHT31;68055;51.978;5.658;2023-02-21T12:00:05;13.1;68.8
78731;SHT31;68055;51.978;5.658;2023-02-21T12:02:46;13.1;69.0
78731;SHT31;68055;51.978;5.658;2023-02-21T12:05:36;13.1;68.9
78731;SHT31;68055;51.978;5.658;2023-02-21T12:08:34;13.1;69.1
78731;SHT31;68055;51.978;5.658;2023-02-21T12:11:26;13.1;68.9
78731;SHT31;68055;51.978;5.658;2023-02-21T12:14:13;13.1;68.9
78731;SHT31;68055;51.978;5.658;2023-02-21T12:16:56;13.1;68.9
78731;SHT31;68055;51.978;5.658;2023-02-21T12:19:45;13.1;68.8
78731;SHT31;68055;51.978;5.658;2023-02-21T12:22:31;13.1;68.8
78731;SHT31;68055;51.978;5.658;2023-02-21T12:25:15;13.1;68.9
78731;SHT31;68055;51.978;5.658;2023-02-21T12:27:52;13.1;68.5
78731;SHT31;68055;51.978;5.658;2023-02-21T12:30:39;13.1;68.7
78731;SHT31;68055;51.978;5.658;2023-02-21T12:33:25;13.1;68.7
78731;SHT31;68055;51.978;5.658;2023-02-21T12:36:04;13.1;68.6
78731;SHT31;68055;51.978;5.658;2023-02-21T12:38:56;13.1;69.0
78731;SHT31;68055;51.978;5.658;2023-02-21T12:41:51;13.0;69.3
78731;SHT31;68055;51.978;5.658;2023-02-21T12:44:28;13.0;69.7
78731;SHT31;68055;51.978;5.658;2023-02-21T12:47:04;13.0;69.6
78731;SHT31;68055;51.978;5.658;2023-02-21T12:49:45;13.0;69.5
78731;SHT31;68055;51.978;5.658;2023-02-21T12:52:22;13.0;69.6
78731;SHT31;68055;51.978;5.658;2023-02-21T12:55:00;13.0;69.6
78731;SHT31;68055;51.978;5.658;2023-02-21T12:57:37;13.1;69.7
78731;SHT31;68055;51.978;5.658;2023-02-21T13:00:17;13.1;69.7
78731;SHT31;68055;51.978;5.658;2023-02-21T13:02:57;13.1;69.9
78731;SHT31;68055;51.978;5.658;2023-02-21T13:05:35;13.1;69.8
78731;SHT31;68055;51.978;5.658;2023-02-21T13:08:15;13.1;69.8
78731;SHT31;68055;51.978;5.658;2023-02-21T13:10:54;13.1;69.5
78731;SHT31;68055;51.978;5.658;2023-02-21T13:13:30;13.1;69.4
78731;SHT31;68055;51.978;5.658;2023-02-21T13:16:04;13.1;69.3
78731;SHT31;68055;51.978;5.658;2023-02-21T13:18:39;13.1;69.4
78731;SHT31;68055;51.978;5.658;2023-02-21T13:21:22;13.2;69.5
78731;SHT31;68055;51.978;5.658;2023-02-21T13:23:58;13.2;69.2
78731;SHT31;68055;51.978;5.658;2023-02-21T13:32:06;13.2;69.0
78731;SHT31;68055;51.978;5.658;2023-02-21T13:34:40;13.2;69.0
78731;SHT31;68055;51.978;5.658;2023-02-21T13:37:17;13.2;68.9
78731;SHT31;68055;51.978;5.658;2023-02-21T13:39:50;13.2;69.2
78731;SHT31;68055;51.978;5.658;2023-02-21T13:42:23;13.2;69.3
78731;SHT31;68055;51.978;5.658;2023-02-21T13:45:07;13.2;69.1
78731;SHT31;68055;51.978;5.658;2023-02-21T13:48:19;13.1;68.9
78731;SHT31;68055;51.978;5.658;2023-02-21T13:50:51;13.1;69.4
78731;SHT31;68055;51.978;5.658;2023-02-21T13:53:23;13.1;69.3
78731;SHT31;68055;51.978;5.658;2023-02-21T13:56:16;13.1;69.3
78731;SHT31;68055;51.978;5.658;2023-02-21T13:58:48;13.1;69.2
78731;SHT31;68055;51.978;5.658;2023-02-21T14:02:19;13.1;69.2
78731;SHT31;68055;51.978;5.658;2023-02-21T14:05:10;13.1;69.3
78731;SHT31;68055;51.978;5.658;2023-02-21T14:08:12;13.1;69.3
78731;SHT31;68055;51.978;5.658;2023-02-21T14:10:46;13.1;68.7
78731;SHT31;68055;51.978;5.658;2023-02-21T14:13:24;13.1;68.8
78731;SHT31;68055;51.978;5.658;2023-02-21T14:15:59;13.1;68.7
78731;SHT31;68055;51.978;5.658;2023-02-21T14:18:41;13.0;68.7
78731;SHT31;68055;51.978;5.658;2023-02-21T14:21:15;13.0;69.2
78731;SHT31;68055;51.978;5.658;2023-02-21T14:23:51;13.0;69.1
78731;SHT31;68055;51.978;5.658;2023-02-21T14:26:38;13.0;69.3
78731;SHT31;68055;51.978;5.658;2023-02-21T14:29:30;13.0;69.4
78731;SHT31;68055;51.978;5.658;2023-02-21T14:32:32;13.0;69.5
78731;SHT31;68055;51.978;5.658;2023-02-21T14:35:22;13.0;69.4
78731;SHT31;68055;51.978;5.658;2023-02-21T14:37:58;13.0;69.3
78731;SHT31;68055;51.978;5.658;2023-02-21T14:40:34;13.0;69.3
78731;SHT31;68055;51.978;5.658;2023-02-21T14:44:08;13.0;69.1
78731;SHT31;68055;51.978;5.658;2023-02-21T14:47:07;13.0;69.5
78731;SHT31;68055;51.978;5.658;2023-02-21T14:55:52;13.0;69.6
78731;SHT31;68055;51.978;5.658;2023-02-21T14:58:40;13.0;69.4
78731;SHT31;68055;51.978;5.658;2023-02-21T15:01:32;13.0;69.7
78731;SHT31;68055;51.978;5.658;2023-02-21T15:04:16;13.0;69.5
78731;SHT31;68055;51.978;5.658;2023-02-21T15:06:57;13.0;69.5
78731;SHT31;68055;51.978;5.658;2023-02-21T15:09:28;13.0;69.4
78731;SHT31;68055;51.978;5.658;2023-02-21T15:11:58;13.0;69.2
78731;SHT31;68055;51.978;5.658;2023-02-21T15:14:31;13.0;69.3
78731;SHT31;68055;51.978;5.658;2023-02-21T15:17:19;13.1;69.3
78731;SHT31;68055;51.978;5.658;2023-02-21T15:20:06;13.1;68.9
78731;SHT31;68055;51.978;5.658;2023-02-21T15:22:38;13.1;68.8
78731;SHT31;68055;51.978;5.658;2023-02-21T15:25:17;13.1;68.6
78731;SHT31;68055;51.978;5.658;2023-02-21T15:27:56;13.1;68.3
78731;SHT31;68055;51.978;5.658;2023-02-21T15:30:29;13.1;68.1
78731;SHT31;68055;51.978;5.658;2023-02-21T15:33:05;13.1;68.2
78731;SHT31;68055;51.978;5.658;2023-02-21T15:35:37;13.1;68.1
78731;SHT31;68055;51.978;5.658;2023-02-21T15:38:14;13.1;68.1
78731;SHT31;68055;51.978;5.658;2023-02-21T15:40:46;13.1;68.1
78731;SHT31;68055;51.978;5.658;2023-02-21T15:43:26;13.1;68.0
78731;SHT31;68055;51.978;5.658;2023-02-21T15:46:01;13.1;68.2
78731;SHT31;68055;51.978;5.658;2023-02-21T15:48:33;13.1;68.2
78731;SHT31;68055;51.978;5.658;2023-02-21T15:51:06;13.1;68.5
78731;SHT31;68055;51.978;5.658;2023-02-21T15:53:37;13.1;68.3
78731;SHT31;68055;51.978;5.658;2023-02-21T15:56:20;13.1;68.3
78731;SHT31;68055;51.978;5.658;2023-02-21T15:59:09;13.1;68.4
78731;SHT31;68055;51.978;5.658;2023-02-21T16:01:40;13.1;68.2
78731;SHT31;68055;51.978;5.658;2023-02-21T16:04:20;13.1;68.1
78731;SHT31;68055;51.978;5.658;2023-02-21T16:06:54;13.1;68.3
78731;SHT31;68055;51.978;5.658;2023-02-21T16:09:28;13.1;68.4
78731;SHT31;68055;51.978;5.658;2023-02-21T16:12:05;13.1;68.2
78731;SHT31;68055;51.978;5.658;2023-02-21T16:14:43;13.1;68.1
78731;SHT31;68055;51.978;5.658;2023-02-21T16:17:25;13.1;68.1
78731;SHT31;68055;51.978;5.658;2023-02-21T16:19:58;13.1;68.1
78731;SHT31;68055;51.978;5.658;2023-02-21T16:22:34;13.1;68.2
78731;SHT31;68055;51.978;5.658;2023-02-21T16:25:14;13.1;68.1
78731;SHT31;68055;51.978;5.658;2023-02-21T16:27:48;13.1;68.1
78731;SHT31;68055;51.978;5.658;2023-02-21T16:30:21;13.1;68.1
78731;SHT31;68055;51.978;5.658;2023-02-21T16:32:53;13.1;68.1
78731;SHT31;68055;51.978;5.658;2023-02-21T16:35:24;13.1;67.6
78731;SHT31;68055;51.978;5.658;2023-02-21T16:37:57;13.1;67.3
78731;SHT31;68055;51.978;5.658;2023-02-21T16:40:28;13.1;67.3
78731;SHT31;68055;51.978;5.658;2023-02-21T16:43:03;13.0;67.7
78731;SHT31;68055;51.978;5.658;2023-02-21T16:45:33;13.0;67.5
78731;SHT31;68055;51.978;5.658;2023-02-21T16:48:04;13.0;67.4
78731;SHT31;68055;51.978;5.658;2023-02-21T16:50:38;13.0;67.4
78731;SHT31;68055;51.978;5.658;2023-02-21T16:53:09;13.0;67.6
78731;SHT31;68055;51.978;5.658;2023-02-21T16:55:41;13.0;67.6
78731;SHT31;68055;51.978;5.658;2023-02-21T16:58:19;13.0;67.5
78731;SHT31;68055;51.978;5.658;2023-02-21T17:00:54;13.0;67.6
78731;SHT31;68055;51.978;5.658;2023-02-21T17:03:24;13.0;67.8
78731;SHT31;68055;51.978;5.658;2023-02-21T17:05:56;13.0;67.7
78731;SHT31;68055;51.978;5.658;2023-02-21T17:08:27;13.0;67.8
78731;SHT31;68055;51.978;5.658;2023-02-21T17:10:57;13.0;67.5
78731;SHT31;68055;51.978;5.658;2023-02-21T17:13:27;13.0;67.6
78731;SHT31;68055;51.978;5.658;2023-02-21T17:15:56;13.0;67.7
78731;SHT31;68055;51.978;5.658;2023-02-21T17:18:27;13.0;67.6
78731;SHT31;68055;51.978;5.658;2023-02-21T17:20:58;13.0;67.7
78731;SHT31;68055;51.978;5.658;2023-02-21T17:23:27;13.0;67.5
78731;SHT31;68055;51.978;5.658;2023-02-21T17:25:57;13.0;67.1
78731;SHT31;68055;51.978;5.658;2023-02-21T17:28:27;13.0;67.2
78731;SHT31;68055;51.978;5.658;2023-02-21T17:30:56;13.0;67.1
78731;SHT31;68055;51.978;5.658;2023-02-21T17:33:26;13.0;67.1
78731;SHT31;68055;51.978;5.658;2023-02-21T17:35:57;13.0;67.3
78731;SHT31;68055;51.978;5.658;2023-02-21T17:38:27;13.0;67.4
78731;SHT31;68055;51.978;5.658;2023-02-21T17:40:56;13.0;67.1
78731;SHT31;68055;51.978;5.658;2023-02-21T17:43:26;13.0;67.6
78731;SHT31;68055;51.978;5.658;2023-02-21T17:45:55;13.0;67.6
78731;SHT31;68055;51.978;5.658;2023-02-21T17:48:25;13.0;67.8
78731;SHT31;68055;51.978;5.658;2023-02-21T17:50:55;13.0;66.9
78731;SHT31;68055;51.978;5.658;2023-02-21T17:53:24;13.0;67.3
78731;SHT31;68055;51.978;5.658;2023-02-21T17:55:54;13.0;67.0
78731;SHT31;68055;51.978;5.658;2023-02-21T17:58:27;13.0;67.1
78731;SHT31;68055;51.978;5.658;2023-02-21T18:00:57;13.0;66.7
78731;SHT31;68055;51.978;5.658;2023-02-21T18:03:27;13.0;66.9
78731;SHT31;68055;51.978;5.658;2023-02-21T18:05:57;13.0;66.3
78731;SHT31;68055;51.978;5.658;2023-02-21T18:08:27;13.0;66.8
78731;SHT31;68055;51.978;5.658;2023-02-21T18:10:56;13.0;66.9
78731;SHT31;68055;51.978;5.658;2023-02-21T18:13:26;13.0;66.7
78731;SHT31;68055;51.978;5.658;2023-02-21T18:15:55;12.9;66.7
78731;SHT31;68055;51.978;5.658;2023-02-21T18:18:27;12.9;66.6
78731;SHT31;68055;51.978;5.658;2023-02-21T18:20:57;12.9;66.7
78731;SHT31;68055;51.978;5.658;2023-02-21T18:23:29;12.9;66.9
78731;SHT31;68055;51.978;5.658;2023-02-21T18:25:59;12.9;67.2
78731;SHT31;68055;51.978;5.658;2023-02-21T18:28:29;12.8;66.7
78731;SHT31;68055;51.978;5.658;2023-02-21T18:30:59;12.8;66.7
78731;SHT31;68055;51.978;5.658;2023-02-21T18:33:29;12.8;66.7
78731;SHT31;68055;51.978;5.658;2023-02-21T18:35:58;12.8;67.0
78731;SHT31;68055;51.978;5.658;2023-02-21T18:38:28;12.8;66.9
78731;SHT31;68055;51.978;5.658;2023-02-21T18:40:59;12.8;67.1
78731;SHT31;68055;51.978;5.658;2023-02-21T18:43:29;12.8;67.6
78731;SHT31;68055;51.978;5.658;2023-02-21T18:45:59;12.7;67.5
78731;SHT31;68055;51.978;5.658;2023-02-21T18:48:28;12.7;67.3
78731;SHT31;68055;51.978;5.658;2023-02-21T18:50:58;12.7;67.0
78731;SHT31;68055;51.978;5.658;2023-02-21T18:53:28;12.7;67.4
78731;SHT31;68055;51.978;5.658;2023-02-21T18:55:58;12.7;67.1
78731;SHT31;68055;51.978;5.658;2023-02-21T18:58:27;12.7;66.9
78731;SHT31;68055;51.978;5.658;2023-02-21T19:00:57;12.7;67.2
78731;SHT31;68055;51.978;5.658;2023-02-21T19:03:26;12.7;66.9
78731;SHT31;68055;51.978;5.658;2023-02-21T19:05:56;12.7;67.1
78731;SHT31;68055;51.978;5.658;2023-02-21T19:08:26;12.7;67.2
78731;SHT31;68055;51.978;5.658;2023-02-21T19:10:55;12.7;67.2
78731;SHT31;68055;51.978;5.658;2023-02-21T19:13:25;12.7;67.1
78731;SHT31;68055;51.978;5.658;2023-02-21T19:15:54;12.7;67.0
78731;SHT31;68055;51.978;5.658;2023-02-21T19:18:25;12.7;66.9
78731;SHT31;68055;51.978;5.658;2023-02-21T19:20:57;12.7;66.8
78731;SHT31;68055;51.978;5.658;2023-02-21T19:23:28;12.7;67.1
78731;SHT31;68055;51.978;5.658;2023-02-21T19:25:57;12.7;66.9
78731;SHT31;68055;51.978;5.658;2023-02-21T19:28:27;12.7;66.7
78731;SHT31;68055;51.978;5.658;2023-02-21T19:30:58;12.6;66.5
78731;SHT31;68055;51.978;5.658;2023-02-21T19:33:28;12.6;66.3
78731;SHT31;68055;51.978;5.658;2023-02-21T19:36:00;12.6;66.2
78731;SHT31;68055;51.978;5.658;2023-02-21T19:38:30;12.6;66.3
78731;SHT31;68055;51.978;5.658;2023-02-21T19:41:00;12.6;66.4
78731;SHT31;68055;51.978;5.658;2023-02-21T19:43:32;12.5;66.3
78731;SHT31;68055;51.978;5.658;2023-02-21T19:46:02;12.5;66.1
78731;SHT31;68055;51.978;5.658;2023-02-21T19:48:32;12.5;66.3
78731;SHT31;68055;51.978;5.658;2023-02-21T19:51:02;12.5;66.1
78731;SHT31;68055;51.978;5.658;2023-02-21T19:53:31;12.5;66.3
78731;SHT31;68055;51.978;5.658;2023-02-21T19:56:01;12.5;66.1
78731;SHT31;68055;51.978;5.658;2023-02-21T19:58:30;12.5;66.6
78731;SHT31;68055;51.978;5.658;2023-02-21T20:01:00;12.5;67.0
78731;SHT31;68055;51.978;5.658;2023-02-21T20:03:29;12.5;66.8
78731;SHT31;68055;51.978;5.658;2023-02-21T20:05:59;12.5;67.1
78731;SHT31;68055;51.978;5.658;2023-02-21T20:08:30;12.5;66.7
78731;SHT31;68055;51.978;5.658;2023-02-21T20:10:59;12.5;66.7
78731;SHT31;68055;51.978;5.658;2023-02-21T20:13:31;12.5;66.7
78731;SHT31;68055;51.978;5.658;2023-02-21T20:16:02;12.5;66.6
78731;SHT31;68055;51.978;5.658;2023-02-21T20:18:32;12.5;66.2
78731;SHT31;68055;51.978;5.658;2023-02-21T20:21:02;12.5;66.2
78731;SHT31;68055;51.978;5.658;2023-02-21T20:23:31;12.5;66.0
78731;SHT31;68055;51.978;5.658;2023-02-21T20:26:01;12.4;65.6
78731;SHT31;68055;51.978;5.658;2023-02-21T20:28:31;12.4;65.5
78731;SHT31;68055;51.978;5.658;2023-02-21T20:31:00;12.4;65.7
78731;SHT31;68055;51.978;5.658;2023-02-21T20:33:30;12.3;65.8
78731;SHT31;68055;51.978;5.658;2023-02-21T20:35:59;12.3;65.9
78731;SHT31;68055;51.978;5.658;2023-02-21T20:38:29;12.3;66.1
78731;SHT31;68055;51.978;5.658;2023-02-21T20:40:59;12.3;66.1
78731;SHT31;68055;51.978;5.658;2023-02-21T20:43:28;12.3;65.6
78731;SHT31;68055;51.978;5.658;2023-02-21T20:45:57;12.3;66.0
78731;SHT31;68055;51.978;5.658;2023-02-21T20:48:28;12.2;66.2
78731;SHT31;68055;51.978;5.658;2023-02-21T20:50:59;12.2;66.3
78731;SHT31;68055;51.978;5.658;2023-02-21T20:53:28;12.2;66.1
78731;SHT31;68055;51.978;5.658;2023-02-21T20:55:58;12.2;66.6
78731;SHT31;68055;51.978;5.658;2023-02-21T20:58:27;12.2;66.5
78731;SHT31;68055;51.978;5.658;2023-02-21T21:00:57;12.2;66.1
78731;SHT31;68055;51.978;5.658;2023-02-21T21:03:28;12.2;66.6
78731;SHT31;68055;51.978;5.658;2023-02-21T21:06:02;12.2;65.9
78731;SHT31;68055;51.978;5.658;2023-02-21T21:08:32;12.2;65.9
78731;SHT31;68055;51.978;5.658;2023-02-21T21:11:01;12.2;66.0
78731;SHT31;68055;51.978;5.658;2023-02-21T21:13:32;12.2;66.0
78731;SHT31;68055;51.978;5.658;2023-02-21T21:16:03;12.2;65.8
78731;SHT31;68055;51.978;5.658;2023-02-21T21:18:33;12.2;66.2
78731;SHT31;68055;51.978;5.658;2023-02-21T21:21:02;12.2;66.3
78731;SHT31;68055;51.978;5.658;2023-02-21T21:23:32;12.2;66.1
78731;SHT31;68055;51.978;5.658;2023-02-21T21:26:04;12.2;65.7
78731;SHT31;68055;51.978;5.658;2023-02-21T21:28:35;12.1;65.9
78731;SHT31;68055;51.978;5.658;2023-02-21T21:31:06;12.1;65.6
78731;SHT31;68055;51.978;5.658;2023-02-21T21:33:36;12.1;65.2
78731;SHT31;68055;51.978;5.658;2023-02-21T21:36:09;12.1;65.1
78731;SHT31;68055;51.978;5.658;2023-02-21T21:38:38;12.0;65.2
78731;SHT31;68055;51.978;5.658;2023-02-21T21:41:13;12.0;65.3
78731;SHT31;68055;51.978;5.658;2023-02-21T21:43:44;12.0;65.2
78731;SHT31;68055;51.978;5.658;2023-02-21T21:46:14;12.0;65.3
78731;SHT31;68055;51.978;5.658;2023-02-21T21:48:46;11.9;65.1
78731;SHT31;68055;51.978;5.658;2023-02-21T21:51:17;11.9;65.1
78731;SHT31;68055;51.978;5.658;2023-02-21T21:53:47;11.9;65.2
78731;SHT31;68055;51.978;5.658;2023-02-21T21:56:23;11.9;65.0
78731;SHT31;68055;51.978;5.658;2023-02-21T21:58:54;11.9;65.1
78731;SHT31;68055;51.978;5.658;2023-02-21T22:01:23;11.9;65.2
78731;SHT31;68055;51.978;5.658;2023-02-21T22:03:53;11.8;65.5
78731;SHT31;68055;51.978;5.658;2023-02-21T22:06:23;11.8;65.7
78731;SHT31;68055;51.978;5.658;2023-02-21T22:08:54;11.8;65.3
78731;SHT31;68055;51.978;5.658;2023-02-21T22:11:26;11.8;65.6
78731;SHT31;68055;51.978;5.658;2023-02-21T22:13:56;11.8;65.7
78731;SHT31;68055;51.978;5.658;2023-02-21T22:16:26;11.8;65.2
78731;SHT31;68055;51.978;5.658;2023-02-21T22:19:00;11.8;65.3
78731;SHT31;68055;51.978;5.658;2023-02-21T22:21:30;11.8;65.3
78731;SHT31;68055;51.978;5.658;2023-02-21T22:24:01;11.8;64.8
78731;SHT31;68055;51.978;5.658;2023-02-21T22:26:31;11.8;64.7
78731;SHT31;68055;51.978;5.658;2023-02-21T22:29:02;11.8;64.9
78731;SHT31;68055;51.978;5.658;2023-02-21T22:31:33;11.8;64.5
78731;SHT31;68055;51.978;5.658;2023-02-21T22:34:03;11.8;64.3
78731;SHT31;68055;51.978;5.658;2023-02-21T22:36:32;11.8;65.0
78731;SHT31;68055;51.978;5.658;2023-02-21T22:39:04;11.8;64.9
78731;SHT31;68055;51.978;5.658;2023-02-21T22:41:37;11.8;64.4
78731;SHT31;68055;51.978;5.658;2023-02-21T22:44:06;11.8;65.0
78731;SHT31;68055;51.978;5.658;2023-02-21T22:46:40;11.8;63.8
78731;SHT31;68055;51.978;5.658;2023-02-21T22:49:10;11.8;63.4
78731;SHT31;68055;51.978;5.658;2023-02-21T22:51:43;11.8;63.6
78731;SHT31;68055;51.978;5.658;2023-02-21T22:54:12;11.8;64.4
78731;SHT31;68055;51.978;5.658;2023-02-21T22:56:42;11.8;64.0
78731;SHT31;68055;51.978;5.658;2023-02-21T22:59:18;11.8;63.9
78731;SHT31;68055;51.978;5.658;2023-02-21T23:01:50;11.8;63.9
78731;SHT31;68055;51.978;5.658;2023-02-21T23:04:20;11.8;64.1
78731;SHT31;68055;51.978;5.658;2023-02-21T23:06:56;11.8;64.0
78731;SHT31;68055;51.978;5.658;2023-02-21T23:09:28;11.8;64.2
78731;SHT31;68055;51.978;5.658;2023-02-21T23:12:03;11.7;64.3
78731;SHT31;68055;51.978;5.658;2023-02-21T23:14:33;11.7;64.2
78731;SHT31;68055;51.978;5.658;2023-02-21T23:17:03;11.7;64.3
78731;SHT31;68055;51.978;5.658;2023-02-21T23:19:32;11.7;64.1
78731;SHT31;68055;51.978;5.658;2023-02-21T23:22:02;11.7;63.9
78731;SHT31;68055;51.978;5.658;2023-02-21T23:24:32;11.7;64.2
78731;SHT31;68055;51.978;5.658;2023-02-21T23:27:01;11.7;64.5
78731;SHT31;68055;51.978;5.658;2023-02-21T23:29:35;11.7;64.4
78731;SHT31;68055;51.978;5.658;2023-02-21T23:32:06;11.7;63.9
78731;SHT31;68055;51.978;5.658;2023-02-21T23:34:37;11.7;63.6
78731;SHT31;68055;51.978;5.658;2023-02-21T23:37:10;11.7;63.5
78731;SHT31;68055;51.978;5.658;2023-02-21T23:39:41;11.6;63.7
78731;SHT31;68055;51.978;5.658;2023-02-21T23:42:13;11.6;63.9
78731;SHT31;68055;51.978;5.658;2023-02-21T23:44:43;11.6;64.5
78731;SHT31;68055;51.978;5.658;2023-02-21T23:47:17;11.6;64.5
78731;SHT31;68055;51.978;5.658;2023-02-21T23:49:46;11.6;64.5
78731;SHT31;68055;51.978;5.658;2023-02-21T23:52:16;11.6;64.4
78731;SHT31;68055;51.978;5.658;2023-02-21T23:54:49;11.6;64.0
78731;SHT31;68055;51.978;5.658;2023-02-21T23:57:21;11.6;63.7
78731;SHT31;68055;51.978;5.658;2023-02-21T23:59:51;11.6;64.0
